createdAt,value
2022-12-03T00:02:52.658Z,4.75
2022-12-03T00:05:54.481Z,4.80
2022-12-03T00:08:58.138Z,4.28
2022-12-03T00:11:59.786Z,4.90
2022-12-03T00:15:01.499Z,4.85
2022-12-03T00:18:03.208Z,5.80
2022-12-03T00:21:04.947Z,5.22
2022-12-03T00:24:07.266Z,5.22
2022-12-03T00:27:11.797Z,4.47
2022-12-03T00:30:14.151Z,4.93
2022-12-03T00:33:16.511Z,5.35
2022-12-03T00:36:18.951Z,5.03
2022-12-03T00:39:20.906Z,5.32
2022-12-03T00:42:22.615Z,4.97
2022-12-03T00:45:24.635Z,5.20
2022-12-03T00:48:26.911Z,4.75
2022-12-03T00:51:29.122Z,5.47
2022-12-03T00:54:32.248Z,5.40
2022-12-03T00:57:34.552Z,5.50
2022-12-03T01:00:37.538Z,5.15
2022-12-03T01:03:41.773Z,5.13
2022-12-03T01:06:43.931Z,4.88
2022-12-03T01:09:45.667Z,4.68
2022-12-03T01:12:47.471Z,4.88
2022-12-03T01:15:49.216Z,5.22
2022-12-03T01:18:52.781Z,5.28
2022-12-03T01:21:55.520Z,5.32
2022-12-03T01:24:57.261Z,5.03
2022-12-03T01:27:58.915Z,4.57
2022-12-03T01:31:19.188Z,5.07
2022-12-03T01:34:21.066Z,5.30
2022-12-03T01:37:24.836Z,5.22
2022-12-03T01:40:26.457Z,4.97
2022-12-03T01:43:28.114Z,6.38
2022-12-03T01:46:38.640Z,5.00
2022-12-03T01:49:45.683Z,4.82
2022-12-03T01:52:47.519Z,4.80
2022-12-03T01:55:49.214Z,5.20
2022-12-03T01:58:51.033Z,4.55
2022-12-03T02:01:52.725Z,5.43
2022-12-03T02:04:55.433Z,6.30
2022-12-03T02:07:58.305Z,5.53
2022-12-03T02:11:16.062Z,5.10
2022-12-03T02:14:21.827Z,6.10
2022-12-03T02:17:23.867Z,4.88
2022-12-03T02:20:25.689Z,4.78
2022-12-03T02:23:39.504Z,5.20
2022-12-03T02:26:41.310Z,4.60
2022-12-03T02:29:43.213Z,5.18
2022-12-03T02:32:45.002Z,4.82
2022-12-03T02:35:46.958Z,3.95
2022-12-03T02:38:51.100Z,4.30
2022-12-03T02:42:11.640Z,4.82
2022-12-03T02:45:27.625Z,5.13
2022-12-03T02:48:34.570Z,5.00
2022-12-03T02:51:36.455Z,4.93
2022-12-03T02:54:38.339Z,5.38
2022-12-03T02:57:40.979Z,5.05
2022-12-03T03:00:44.088Z,5.15
2022-12-03T03:03:47.725Z,5.05
2022-12-03T03:06:49.556Z,5.32
2022-12-03T03:09:51.307Z,4.82
2022-12-03T03:12:55.269Z,5.15
2022-12-03T03:15:57.482Z,4.63
2022-12-03T03:18:59.403Z,4.97
2022-12-03T03:22:01.009Z,5.25
2022-12-03T03:25:04.665Z,5.80
2022-12-03T03:28:07.547Z,4.65
2022-12-03T03:31:11.856Z,4.60
2022-12-03T03:34:14.882Z,5.07
2022-12-03T03:37:16.847Z,4.32
2022-12-03T03:40:20.799Z,5.43
2022-12-03T03:43:23.836Z,5.88
2022-12-03T03:46:26.843Z,5.63
2022-12-03T03:49:29.410Z,6.32
2022-12-03T03:52:31.241Z,5.93
2022-12-03T03:55:33.921Z,5.45
2022-12-03T03:58:36.214Z,6.25
2022-12-03T04:01:38.075Z,5.35
2022-12-03T04:04:40.121Z,5.15
2022-12-03T04:07:42.003Z,5.13
2022-12-03T04:11:02.133Z,4.95
2022-12-03T04:14:03.930Z,5.85
2022-12-03T04:17:05.671Z,5.03
2022-12-03T04:20:07.554Z,5.43
2022-12-03T04:23:09.495Z,4.85
2022-12-03T04:26:29.708Z,5.03
2022-12-03T04:29:31.380Z,4.18
2022-12-03T04:32:51.762Z,4.38
2022-12-03T04:35:53.639Z,4.80
2022-12-03T04:38:55.370Z,4.55
2022-12-03T04:41:57.193Z,5.10
2022-12-03T04:45:01.148Z,5.07
2022-12-03T04:48:02.792Z,4.90
2022-12-03T04:51:04.445Z,4.65
2022-12-03T04:54:06.137Z,6.03
2022-12-03T04:57:08.858Z,4.60
2022-12-03T05:00:11.349Z,4.72
2022-12-03T05:03:13.002Z,4.63
2022-12-03T05:06:14.842Z,4.55
2022-12-03T05:09:16.800Z,5.43
2022-12-03T05:12:18.515Z,5.72
2022-12-03T05:15:20.219Z,5.75
2022-12-03T05:18:22.049Z,6.03
2022-12-03T05:21:23.748Z,6.65
2022-12-03T05:24:25.404Z,5.63
2022-12-03T05:27:27.242Z,5.22
2022-12-03T05:30:28.959Z,4.95
2022-12-03T05:33:32.127Z,5.40
2022-12-03T05:36:33.813Z,4.97
2022-12-03T05:39:35.500Z,5.88
2022-12-03T05:42:56.846Z,4.50
2022-12-03T05:46:11.903Z,4.43
2022-12-03T05:49:24.837Z,4.80
2022-12-03T05:52:41.075Z,5.35
2022-12-03T05:59:29.344Z,4.57
2022-12-03T06:02:41.255Z,5.10
2022-12-03T06:05:45.878Z,4.45
2022-12-03T06:08:47.868Z,4.78
2022-12-03T06:11:54.138Z,5.32
2022-12-03T06:14:56.506Z,4.72
2022-12-03T06:17:59.029Z,5.03
2022-12-03T06:21:08.864Z,4.72
2022-12-03T06:24:21.320Z,4.70
2022-12-03T06:27:27.195Z,5.25
2022-12-03T06:30:33.295Z,5.65
2022-12-03T06:37:03.498Z,5.43
2022-12-03T06:40:06.962Z,5.30
2022-12-03T06:43:09.567Z,5.15
2022-12-03T06:46:12.470Z,5.97
2022-12-03T06:49:14.244Z,4.80
2022-12-03T06:52:17.287Z,5.70
2022-12-03T06:55:36.297Z,5.15
2022-12-03T06:59:14.755Z,5.53
2022-12-03T07:02:28.120Z,5.15
2022-12-03T07:05:48.109Z,4.88
2022-12-03T07:08:52.923Z,5.45
2022-12-03T07:19:16.280Z,5.00
2022-12-03T07:43:10.752Z,5.65
2022-12-03T07:55:35.617Z,5.32
2022-12-03T08:03:24.351Z,5.03
2022-12-03T08:07:52.644Z,4.65
2022-12-03T09:23:16.361Z,7.03
2022-12-03T09:31:56.632Z,5.70
2022-12-03T09:35:18.407Z,6.20
2022-12-03T09:39:23.799Z,7.03
2022-12-03T09:42:41.719Z,5.50
2022-12-03T09:46:30.974Z,6.30
2022-12-03T09:50:18.275Z,6.03
2022-12-03T09:54:12.110Z,7.25
2022-12-03T09:58:23.431Z,6.32
2022-12-03T10:02:00.340Z,7.63
2022-12-03T10:05:15.270Z,6.13
2022-12-03T10:08:32.347Z,6.28
2022-12-03T10:11:39.286Z,6.50
2022-12-03T10:15:14.781Z,6.90
2022-12-03T10:18:21.614Z,5.60
2022-12-03T10:26:04.835Z,5.50
2022-12-03T10:35:08.452Z,6.47
2022-12-03T10:38:28.452Z,5.78
2022-12-03T10:42:27.315Z,6.63
2022-12-03T10:50:34.710Z,6.28
2022-12-03T10:53:58.222Z,5.65
2022-12-03T10:57:00.240Z,6.55
2022-12-03T11:00:36.963Z,7.00
2022-12-03T11:12:36.951Z,7.45
2022-12-03T11:16:13.727Z,7.88
2022-12-03T11:21:13.656Z,8.13
2022-12-03T11:24:50.490Z,7.35
2022-12-03T11:28:39.663Z,6.72
2022-12-03T11:35:31.087Z,6.85
2022-12-03T11:39:33.944Z,6.55
2022-12-03T11:43:03.378Z,7.50
2022-12-03T11:51:20.966Z,7.10
2022-12-03T11:54:28.217Z,8.43
2022-12-03T11:58:07.113Z,7.25
2022-12-03T12:01:41.802Z,8.20
2022-12-03T12:08:23.464Z,8.13
2022-12-03T12:12:08.100Z,7.28
2022-12-03T12:16:02.776Z,7.15
2022-12-03T12:19:47.339Z,8.02
2022-12-03T12:23:28.464Z,7.15
2022-12-03T12:31:24.520Z,7.43
2022-12-03T12:48:59.848Z,8.07
2022-12-03T12:52:02.732Z,8.38
2022-12-03T12:55:12.459Z,8.18
2022-12-03T12:58:20.083Z,9.07
2022-12-03T13:01:41.914Z,8.32
2022-12-03T13:05:00.273Z,8.65
2022-12-03T13:08:35.394Z,6.90
2022-12-03T13:11:54.941Z,8.98
2022-12-03T13:15:52.132Z,8.07
2022-12-03T13:19:15.773Z,9.13
2022-12-03T13:26:47.714Z,9.50
2022-12-03T13:30:02.161Z,9.02
2022-12-03T13:33:27.357Z,9.10
2022-12-03T13:41:51.833Z,9.32
2022-12-03T13:45:04.249Z,8.88
2022-12-03T13:56:51.539Z,9.98
2022-12-03T14:04:46.194Z,9.25
2022-12-03T14:08:08.902Z,8.35
2022-12-03T14:11:37.966Z,8.32
2022-12-03T14:14:59.946Z,9.63
2022-12-03T14:18:53.469Z,8.20
2022-12-03T14:22:10.437Z,8.40
2022-12-03T14:27:11.143Z,8.40
2022-12-03T14:30:42.474Z,8.27
2022-12-03T14:39:35.389Z,7.80
2022-12-03T14:42:42.814Z,10.00
2022-12-03T14:45:46.078Z,9.90
2022-12-03T14:48:54.965Z,9.90
2022-12-03T14:52:08.589Z,11.45
2022-12-03T14:55:21.991Z,10.07
2022-12-03T14:58:48.072Z,9.80
2022-12-03T15:02:17.774Z,11.65
2022-12-03T15:05:49.347Z,11.10
2022-12-03T15:09:24.757Z,12.02
2022-12-03T15:12:45.966Z,15.63
2022-12-03T15:15:53.150Z,12.93
2022-12-03T15:19:06.446Z,13.65
2022-12-03T15:22:27.710Z,13.27
2022-12-03T15:25:48.567Z,11.88
2022-12-03T15:28:59.287Z,11.90
2022-12-03T15:32:04.867Z,13.70
2022-12-03T15:35:09.344Z,14.57
2022-12-03T15:38:11.967Z,10.15
2022-12-03T15:41:30.160Z,13.07
2022-12-03T15:44:34.254Z,15.80
2022-12-03T15:47:41.758Z,16.50
2022-12-03T15:50:45.092Z,15.82
2022-12-03T15:53:47.617Z,15.98
2022-12-03T15:56:57.054Z,17.13
2022-12-03T16:00:01.874Z,18.40
2022-12-03T16:03:14.795Z,17.02
2022-12-03T16:06:19.827Z,17.90
2022-12-03T16:09:26.922Z,16.50
2022-12-03T16:12:30.564Z,14.32
2022-12-03T16:15:33.167Z,12.50
2022-12-03T16:18:37.564Z,12.95
2022-12-03T16:21:46.780Z,11.10
2022-12-03T16:24:53.285Z,9.93
2022-12-03T16:28:02.112Z,13.20
2022-12-03T16:31:22.386Z,11.30
2022-12-03T16:34:34.519Z,11.52
2022-12-03T16:37:46.373Z,13.18
2022-12-03T16:40:49.550Z,13.40
2022-12-03T16:43:51.348Z,13.57
2022-12-03T16:46:53.946Z,15.27
2022-12-03T16:49:58.499Z,11.32
2022-12-03T16:53:00.283Z,23.48
2022-12-03T16:56:02.695Z,13.07
2022-12-03T16:59:05.344Z,8.38
2022-12-03T17:02:07.733Z,15.45
2022-12-03T17:05:09.629Z,16.73
2022-12-03T17:08:11.464Z,11.43
2022-12-03T17:11:13.376Z,10.27
2022-12-03T17:14:15.154Z,9.60
2022-12-03T17:17:16.865Z,10.10
2022-12-03T17:20:18.958Z,9.65
2022-12-03T17:23:20.730Z,15.07
2022-12-03T17:26:22.475Z,17.95
2022-12-03T17:29:24.994Z,16.70
2022-12-03T17:32:26.695Z,8.60
2022-12-03T17:35:28.663Z,8.15
2022-12-03T17:38:35.684Z,9.32
2022-12-03T17:41:40.847Z,8.68
2022-12-03T17:44:42.655Z,7.78
2022-12-03T17:47:44.455Z,20.08
2022-12-03T17:50:46.390Z,13.30
2022-12-03T17:53:48.118Z,10.50
2022-12-03T17:56:49.884Z,7.65
2022-12-03T17:59:52.225Z,7.93
2022-12-03T18:02:56.985Z,7.68
2022-12-03T18:05:58.699Z,7.45
2022-12-03T18:09:00.485Z,10.43
2022-12-03T18:12:02.199Z,9.05
2022-12-03T18:15:04.790Z,8.05
2022-12-03T18:18:07.031Z,8.05
2022-12-03T18:21:08.868Z,6.85
2022-12-03T18:24:10.668Z,7.05
2022-12-03T18:27:12.571Z,6.75
2022-12-03T18:30:14.465Z,6.93
2022-12-03T18:33:16.340Z,5.90
2022-12-03T18:36:21.247Z,7.47
2022-12-03T18:39:33.925Z,5.70
2022-12-03T18:42:35.681Z,6.93
2022-12-03T18:45:37.994Z,5.85
2022-12-03T18:48:39.722Z,5.90
2022-12-03T18:51:41.550Z,6.50
2022-12-03T18:54:43.665Z,7.95
2022-12-03T18:57:46.037Z,8.55
2022-12-03T19:00:47.903Z,7.65
2022-12-03T19:03:50.017Z,8.25
2022-12-03T19:06:51.721Z,8.43
2022-12-03T19:09:53.596Z,13.50
2022-12-03T19:12:55.487Z,9.30
2022-12-03T19:15:57.206Z,8.02
2022-12-03T19:18:58.918Z,7.20
2022-12-03T19:22:00.636Z,9.43
2022-12-03T19:25:03.429Z,8.93
2022-12-03T19:28:05.312Z,8.55
2022-12-03T19:31:12.428Z,7.90
2022-12-03T19:34:14.164Z,7.95
2022-12-03T19:37:16.053Z,8.05
2022-12-03T19:40:19.048Z,7.18
2022-12-03T19:43:20.767Z,7.07
2022-12-03T19:46:24.671Z,6.47
2022-12-03T19:49:26.572Z,7.00
2022-12-03T19:52:28.266Z,7.70
2022-12-03T19:55:29.928Z,6.47
2022-12-03T19:58:31.916Z,7.45
2022-12-03T20:01:36.069Z,6.60
2022-12-03T20:04:38.289Z,6.28
2022-12-03T20:07:40.111Z,6.63
2022-12-03T20:10:41.890Z,7.22
2022-12-03T20:13:44.245Z,6.63
2022-12-03T20:16:47.473Z,7.05
2022-12-03T20:19:49.377Z,7.75
2022-12-03T20:22:51.160Z,9.20
2022-12-03T20:25:53.041Z,11.38
2022-12-03T20:28:56.141Z,8.32
2022-12-03T20:31:57.878Z,7.05
2022-12-03T20:35:00.002Z,7.55
2022-12-03T20:38:01.623Z,6.95
2022-12-03T20:41:06.032Z,6.20
2022-12-03T20:44:08.197Z,9.88
2022-12-03T20:47:10.047Z,12.10
2022-12-03T20:50:12.028Z,7.68
2022-12-03T20:53:24.642Z,7.15
2022-12-03T20:56:33.314Z,7.03
2022-12-03T20:59:35.122Z,6.15
2022-12-03T21:02:38.000Z,7.30
2022-12-03T21:05:39.768Z,6.20
2022-12-03T21:08:42.794Z,5.60
2022-12-03T21:11:44.866Z,6.05
2022-12-03T21:14:46.875Z,5.60
2022-12-03T21:17:48.850Z,5.50
2022-12-03T21:20:50.625Z,5.55
2022-12-03T21:23:52.971Z,5.40
2022-12-03T21:26:54.633Z,6.30
2022-12-03T21:29:56.710Z,7.60
2022-12-03T21:32:58.546Z,7.75
2022-12-03T21:36:01.098Z,8.02
2022-12-03T21:39:03.314Z,11.73
2022-12-03T21:42:34.207Z,9.93
2022-12-03T21:45:26.679Z,9.13
2022-12-03T21:48:28.308Z,10.18
2022-12-03T21:51:30.073Z,8.05
2022-12-03T21:54:31.802Z,8.15
2022-12-03T21:57:36.449Z,7.78
2022-12-03T22:00:38.375Z,8.15
2022-12-03T22:03:40.186Z,7.47
2022-12-03T22:06:41.963Z,8.82
2022-12-03T22:09:43.636Z,9.65
2022-12-03T22:12:45.489Z,8.23
2022-12-03T22:15:47.231Z,8.32
2022-12-03T22:18:49.137Z,7.28
2022-12-03T22:21:50.924Z,8.50
2022-12-03T22:24:52.618Z,7.32
2022-12-03T22:27:54.341Z,7.82
2022-12-03T22:30:56.263Z,7.60
2022-12-03T22:33:58.102Z,6.63
2022-12-03T22:36:59.779Z,6.57
2022-12-03T22:40:01.629Z,6.60
2022-12-03T22:43:03.320Z,7.13
2022-12-03T22:46:06.723Z,6.85
2022-12-03T22:49:08.562Z,6.72
2022-12-03T22:52:10.189Z,5.72
2022-12-03T22:55:11.836Z,5.82
2022-12-03T22:58:13.473Z,6.72
2022-12-03T23:01:24.061Z,6.57
2022-12-03T23:04:25.744Z,7.15
2022-12-03T23:07:27.530Z,7.80
2022-12-03T23:10:32.657Z,8.52
2022-12-03T23:13:36.324Z,8.10
2022-12-03T23:16:38.400Z,7.80
2022-12-03T23:19:40.177Z,8.13
2022-12-03T23:22:42.017Z,7.45
2022-12-03T23:25:44.012Z,7.85
2022-12-03T23:28:46.629Z,8.07
2022-12-03T23:31:48.366Z,7.95
2022-12-03T23:34:53.060Z,7.13
2022-12-03T23:37:54.934Z,7.15
2022-12-03T23:40:56.790Z,8.48
2022-12-03T23:43:58.581Z,7.00
2022-12-03T23:47:01.004Z,7.65
2022-12-03T23:50:04.341Z,7.15
2022-12-03T23:53:06.084Z,7.43
2022-12-03T23:56:15.062Z,7.55
2022-12-03T23:59:16.773Z,7.43
